createdAt,value
2019-03-20T00:01:43.183Z,4.30
2019-03-20T00:04:07.174Z,4.43
2019-03-20T00:06:39.184Z,4.70
2019-03-20T00:09:11.110Z,4.87
2019-03-20T00:11:43.407Z,4.20
2019-03-20T00:14:14.754Z,5.03
2019-03-20T00:16:46.933Z,3.93
2019-03-20T00:19:18.377Z,4.70
2019-03-20T00:21:50.179Z,3.90
2019-03-20T00:24:21.509Z,4.57
2019-03-20T00:26:52.898Z,4.97
2019-03-20T00:29:24.301Z,4.27
2019-03-20T00:31:55.723Z,3.77
2019-03-20T00:34:27.141Z,4.10
2019-03-20T00:37:00.473Z,4.30
2019-03-20T00:39:32.790Z,4.70
2019-03-20T00:42:05.791Z,4.30
2019-03-20T00:44:37.294Z,3.53
2019-03-20T00:47:09.031Z,3.33
2019-03-20T00:49:40.494Z,3.73
2019-03-20T00:52:13.078Z,3.50
2019-03-20T00:54:44.898Z,3.43
2019-03-20T00:57:16.399Z,3.30
2019-03-20T00:59:48.449Z,3.83
2019-03-20T01:02:20.284Z,3.63
2019-03-20T01:04:51.855Z,4.00
2019-03-20T01:07:23.320Z,3.43
2019-03-20T01:09:54.729Z,3.87
2019-03-20T01:12:26.327Z,4.03
2019-03-20T01:14:58.192Z,4.03
2019-03-20T01:17:29.747Z,3.83
2019-03-20T01:20:01.731Z,4.23
2019-03-20T01:22:33.088Z,3.80
2019-03-20T01:25:06.373Z,3.80
2019-03-20T01:27:37.815Z,3.70
2019-03-20T01:30:11.784Z,3.27
2019-03-20T01:32:43.251Z,3.50
2019-03-20T01:35:23.515Z,3.40
2019-03-20T01:37:52.968Z,3.43
2019-03-20T01:40:24.445Z,3.20
2019-03-20T01:42:55.731Z,3.43
2019-03-20T01:45:27.441Z,4.00
2019-03-20T01:47:59.085Z,3.60
2019-03-20T01:50:30.434Z,3.60
2019-03-20T01:53:03.036Z,3.37
2019-03-20T01:55:35.655Z,3.50
2019-03-20T01:58:06.975Z,3.50
2019-03-20T02:00:38.344Z,4.10
2019-03-20T02:03:09.742Z,3.10
2019-03-20T02:05:41.785Z,3.57
2019-03-20T02:08:13.140Z,3.10
2019-03-20T02:10:44.492Z,4.10
2019-03-20T02:13:15.816Z,3.50
2019-03-20T02:15:47.688Z,3.77
2019-03-20T02:18:19.120Z,3.40
2019-03-20T02:20:50.606Z,3.30
2019-03-20T02:23:21.984Z,3.17
2019-03-20T02:25:54.038Z,3.47
2019-03-20T02:28:25.561Z,3.13
2019-03-20T02:30:57.090Z,3.23
2019-03-20T02:33:28.665Z,3.40
2019-03-20T02:36:00.558Z,3.53
2019-03-20T02:38:32.001Z,3.40
2019-03-20T02:41:03.423Z,2.70
2019-03-20T02:43:35.161Z,3.67
2019-03-20T02:46:06.531Z,3.03
2019-03-20T02:48:38.047Z,3.63
2019-03-20T02:51:09.779Z,3.10
2019-03-20T02:53:41.121Z,3.67
2019-03-20T02:56:12.917Z,3.23
2019-03-20T02:58:44.415Z,3.53
2019-03-20T03:01:16.522Z,3.33
2019-03-20T03:03:48.505Z,3.53
2019-03-20T03:06:20.204Z,3.27
2019-03-20T03:08:51.466Z,2.60
2019-03-20T03:11:22.828Z,3.47
2019-03-20T03:13:54.727Z,2.80
2019-03-20T03:16:26.032Z,3.80
2019-03-20T03:18:58.511Z,4.00
2019-03-20T03:21:29.952Z,3.63
2019-03-20T03:24:01.507Z,3.37
2019-03-20T03:26:32.924Z,3.37
2019-03-20T03:29:05.351Z,3.67
2019-03-20T03:31:36.748Z,3.70
2019-03-20T03:34:08.561Z,3.67
2019-03-20T03:36:41.495Z,3.10
2019-03-20T03:39:12.970Z,3.93
2019-03-20T03:41:44.474Z,3.63
2019-03-20T03:44:15.873Z,3.43
2019-03-20T03:46:48.219Z,3.07
2019-03-20T03:49:20.593Z,3.70
2019-03-20T03:51:53.464Z,3.47
2019-03-20T03:54:25.228Z,3.27
2019-03-20T03:56:56.846Z,3.30
2019-03-20T03:59:28.443Z,4.13
2019-03-20T04:02:00.131Z,3.93
2019-03-20T04:04:31.452Z,3.60
2019-03-20T04:07:02.808Z,3.57
2019-03-20T04:09:34.138Z,3.70
2019-03-20T04:12:05.572Z,3.43
2019-03-20T04:14:36.836Z,2.90
2019-03-20T04:17:25.364Z,3.33
2019-03-20T04:19:56.672Z,3.70
2019-03-20T04:22:28.410Z,3.83
2019-03-20T04:25:00.465Z,3.17
2019-03-20T04:27:31.769Z,3.60
2019-03-20T04:30:03.159Z,4.20
2019-03-20T04:32:34.786Z,3.80
2019-03-20T04:35:06.226Z,3.53
2019-03-20T04:37:37.516Z,3.80
2019-03-20T04:40:09.923Z,3.07
2019-03-20T04:42:41.253Z,3.40
2019-03-20T04:45:13.000Z,3.07
2019-03-20T04:47:45.070Z,3.00
2019-03-20T04:50:16.774Z,3.80
2019-03-20T04:52:48.028Z,3.10
2019-03-20T04:55:19.315Z,3.23
2019-03-20T04:57:50.621Z,3.80
2019-03-20T05:00:21.932Z,4.30
2019-03-20T05:02:53.531Z,4.53
2019-03-20T05:05:25.417Z,3.90
2019-03-20T05:07:57.096Z,3.47
2019-03-20T05:10:28.518Z,3.90
2019-03-20T05:13:00.158Z,3.77
2019-03-20T05:15:31.506Z,2.87
2019-03-20T05:18:02.828Z,3.40
2019-03-20T05:20:34.144Z,3.30
2019-03-20T05:23:05.456Z,3.57
2019-03-20T05:25:36.790Z,3.53
2019-03-20T05:28:08.439Z,3.30
2019-03-20T05:30:39.836Z,3.80
2019-03-20T05:33:11.257Z,3.53
2019-03-20T05:35:42.961Z,3.83
2019-03-20T05:38:14.294Z,4.20
2019-03-20T05:40:46.175Z,4.07
2019-03-20T05:43:17.439Z,4.50
2019-03-20T05:45:48.828Z,4.60
2019-03-20T05:48:20.125Z,4.30
2019-03-20T05:50:51.406Z,4.20
2019-03-20T05:53:22.769Z,4.23
2019-03-20T05:55:54.548Z,5.30
2019-03-20T05:58:26.402Z,4.30
2019-03-20T06:00:57.716Z,4.10
2019-03-20T06:03:29.736Z,3.60
2019-03-20T06:06:01.503Z,3.47
2019-03-20T06:08:32.929Z,3.50
2019-03-20T06:11:04.252Z,4.50
2019-03-20T06:13:35.596Z,4.00
2019-03-20T06:16:07.383Z,4.10
2019-03-20T06:18:39.723Z,4.80
2019-03-20T06:21:11.007Z,4.63
2019-03-20T06:23:43.865Z,4.53
2019-03-20T06:26:16.235Z,4.47
2019-03-20T06:28:47.662Z,4.60
2019-03-20T06:31:19.158Z,4.40
2019-03-20T06:33:50.548Z,3.70
2019-03-20T06:36:22.551Z,4.90
2019-03-20T06:38:53.942Z,3.70
2019-03-20T06:41:26.004Z,4.40
2019-03-20T06:43:57.498Z,4.50
2019-03-20T06:46:29.636Z,4.70
2019-03-20T06:49:01.378Z,3.73
2019-03-20T06:51:32.797Z,4.33
2019-03-20T06:54:04.238Z,4.67
2019-03-20T06:56:36.125Z,4.47
2019-03-20T06:59:51.783Z,4.03
2019-03-20T07:02:23.195Z,3.93
2019-03-20T07:05:31.177Z,3.77
2019-03-20T07:08:02.766Z,4.37
2019-03-20T07:11:14.139Z,3.73
2019-03-20T07:13:46.029Z,4.23
2019-03-20T07:16:17.414Z,3.67
2019-03-20T07:18:48.667Z,3.57
2019-03-20T07:21:20.289Z,3.00
2019-03-20T07:23:51.985Z,3.70
2019-03-20T07:26:23.396Z,3.20
2019-03-20T07:28:54.847Z,3.50
2019-03-20T07:31:26.086Z,3.83
2019-03-20T07:33:57.473Z,2.80
2019-03-20T07:36:29.845Z,3.53
2019-03-20T07:39:01.447Z,2.90
2019-03-20T07:41:34.213Z,3.13
2019-03-20T07:44:06.260Z,3.50
2019-03-20T07:46:37.879Z,3.20
2019-03-20T07:49:09.704Z,3.70
2019-03-20T07:51:41.001Z,3.30
2019-03-20T07:54:12.554Z,3.60
2019-03-20T07:56:45.602Z,3.53
2019-03-20T07:59:17.011Z,3.40
2019-03-20T08:01:48.320Z,2.90
2019-03-20T08:04:19.688Z,3.10
2019-03-20T08:06:51.322Z,3.30
2019-03-20T08:09:25.328Z,3.10
2019-03-20T08:11:55.674Z,3.13
2019-03-20T08:14:26.974Z,3.93
2019-03-20T08:16:58.976Z,3.40
2019-03-20T08:19:30.365Z,3.90
2019-03-20T08:22:02.174Z,3.77
2019-03-20T08:24:33.617Z,3.07
2019-03-20T08:27:04.960Z,3.23
2019-03-20T08:29:36.391Z,3.37
2019-03-20T08:32:07.767Z,2.80
2019-03-20T08:34:39.563Z,2.83
2019-03-20T08:37:10.906Z,3.17
2019-03-20T08:39:44.430Z,3.00
2019-03-20T08:42:16.704Z,2.80
2019-03-20T08:44:48.174Z,2.30
2019-03-20T08:47:19.537Z,2.27
2019-03-20T08:49:51.009Z,3.00
2019-03-20T08:52:22.331Z,1.80
2019-03-20T08:54:54.058Z,2.10
2019-03-20T08:57:25.589Z,1.80
2019-03-20T08:59:56.951Z,2.00
2019-03-20T09:02:28.337Z,2.10
2019-03-20T09:05:00.387Z,1.97
2019-03-20T09:07:32.513Z,1.80
2019-03-20T09:10:04.182Z,2.73
2019-03-20T09:12:35.499Z,1.70
2019-03-20T09:15:08.721Z,2.00
2019-03-20T09:21:12.029Z,1.83
2019-03-20T09:23:44.570Z,2.10
2019-03-20T09:26:16.192Z,2.00
2019-03-20T09:28:48.388Z,2.10
2019-03-20T09:31:19.742Z,1.77
2019-03-20T09:33:52.750Z,1.40
2019-03-20T09:36:25.041Z,1.43
2019-03-20T09:42:10.018Z,1.53
2019-03-20T09:44:41.672Z,1.70
2019-03-20T09:47:13.205Z,1.80
2019-03-20T09:49:45.887Z,1.80
2019-03-20T09:52:17.351Z,2.60
2019-03-20T09:54:48.794Z,1.80
2019-03-20T09:57:21.164Z,1.97
2019-03-20T09:59:53.590Z,1.80
2019-03-20T10:02:25.112Z,1.90
2019-03-20T10:04:57.208Z,1.80
2019-03-20T10:07:29.078Z,2.40
2019-03-20T10:10:01.014Z,2.07
2019-03-20T10:12:32.630Z,1.80
2019-03-20T10:15:09.912Z,2.03
2019-03-20T10:17:41.380Z,1.70
2019-03-20T10:20:14.348Z,1.80
2019-03-20T10:22:45.742Z,2.30
2019-03-20T10:25:17.226Z,1.70
2019-03-20T10:27:49.116Z,1.70
2019-03-20T10:30:22.466Z,1.43
2019-03-20T10:32:54.040Z,2.17
2019-03-20T10:35:25.558Z,1.87
2019-03-20T10:37:56.983Z,1.90
2019-03-20T10:40:28.531Z,1.93
2019-03-20T10:43:00.413Z,1.60
2019-03-20T10:45:31.930Z,1.70
2019-03-20T10:48:03.360Z,2.00
2019-03-20T10:50:34.658Z,1.83
2019-03-20T10:53:06.116Z,1.73
2019-03-20T10:55:37.695Z,1.50
2019-03-20T10:58:09.059Z,1.90
2019-03-20T11:00:40.861Z,1.60
2019-03-20T11:03:13.193Z,1.97
2019-03-20T11:05:45.531Z,1.60
2019-03-20T11:08:16.916Z,1.53
2019-03-20T11:10:48.526Z,1.77
2019-03-20T11:13:19.873Z,1.67
2019-03-20T11:15:52.373Z,1.70
2019-03-20T11:18:23.756Z,1.50
2019-03-20T11:20:55.105Z,1.80
2019-03-20T11:23:26.764Z,1.20
2019-03-20T11:26:00.012Z,1.77
2019-03-20T11:28:31.767Z,1.80
2019-03-20T11:31:03.040Z,2.10
2019-03-20T11:33:35.527Z,1.33
2019-03-20T11:36:06.864Z,1.60
2019-03-20T11:38:38.353Z,1.70
2019-03-20T11:41:09.755Z,1.87
2019-03-20T11:43:41.070Z,1.87
2019-03-20T11:46:12.397Z,1.67
2019-03-20T11:48:44.337Z,3.43
2019-03-20T11:51:15.663Z,1.87
2019-03-20T11:53:47.811Z,1.60
2019-03-20T11:56:20.435Z,1.77
2019-03-20T11:58:51.883Z,1.70
2019-03-20T12:01:23.691Z,2.00
2019-03-20T12:03:55.809Z,2.33
2019-03-20T12:06:27.154Z,1.50
2019-03-20T12:08:59.025Z,2.03
2019-03-20T12:11:30.713Z,1.67
2019-03-20T12:14:02.356Z,1.63
2019-03-20T12:16:33.983Z,2.40
2019-03-20T12:19:05.821Z,2.10
2019-03-20T12:21:37.153Z,1.90
2019-03-20T12:24:08.487Z,1.63
2019-03-20T12:26:40.743Z,1.90
2019-03-20T12:29:13.057Z,2.20
2019-03-20T12:31:44.914Z,1.70
2019-03-20T12:34:16.332Z,2.10
2019-03-20T12:36:49.420Z,1.90
2019-03-20T12:39:22.082Z,1.90
2019-03-20T12:41:53.919Z,1.83
2019-03-20T12:44:26.677Z,2.13
2019-03-20T12:46:58.326Z,2.00
2019-03-20T12:49:29.726Z,2.50
2019-03-20T12:52:01.160Z,2.20
2019-03-20T12:54:32.523Z,2.10
2019-03-20T12:57:04.091Z,1.90
2019-03-20T12:59:35.349Z,1.97
2019-03-20T13:02:08.230Z,2.07
2019-03-20T13:04:40.073Z,2.23
2019-03-20T13:07:11.727Z,1.53
2019-03-20T13:09:43.368Z,2.60
2019-03-20T13:12:14.751Z,3.60
2019-03-20T13:14:47.159Z,3.20
2019-03-20T13:17:18.741Z,3.07
2019-03-20T13:19:50.750Z,1.97
2019-03-20T13:22:23.195Z,1.90
2019-03-20T13:24:54.573Z,2.07
2019-03-20T13:27:26.300Z,2.30
2019-03-20T13:29:58.734Z,2.53
2019-03-20T13:32:30.545Z,1.80
2019-03-20T13:35:02.479Z,2.47
2019-03-20T13:37:34.101Z,1.70
2019-03-20T13:40:13.831Z,1.80
2019-03-20T13:42:40.201Z,1.90
2019-03-20T13:45:14.161Z,2.30
2019-03-20T13:47:45.995Z,2.00
2019-03-20T13:50:17.597Z,1.80
2019-03-20T13:52:48.961Z,2.00
2019-03-20T13:55:20.498Z,1.80
2019-03-20T13:57:52.357Z,1.70
2019-03-20T14:00:24.351Z,2.27
2019-03-20T14:02:55.711Z,1.90
2019-03-20T14:05:27.047Z,2.10
2019-03-20T14:07:58.720Z,2.10
2019-03-20T14:10:30.901Z,2.20
2019-03-20T14:13:02.143Z,2.10
2019-03-20T14:15:34.337Z,2.20
2019-03-20T14:18:06.388Z,2.10
2019-03-20T14:20:39.423Z,2.17
2019-03-20T14:23:11.511Z,2.10
2019-03-20T14:25:43.780Z,1.97
2019-03-20T14:28:15.686Z,2.20
2019-03-20T14:30:47.974Z,1.63
2019-03-20T14:33:19.576Z,2.50
2019-03-20T14:35:51.211Z,3.17
2019-03-20T14:38:22.613Z,3.43
2019-03-20T14:40:54.892Z,2.30
2019-03-20T14:43:26.302Z,2.17
2019-03-20T14:45:57.821Z,2.50
2019-03-20T14:48:29.393Z,2.50
2019-03-20T14:51:01.504Z,2.80
2019-03-20T14:53:34.625Z,3.40
2019-03-20T14:56:05.985Z,3.40
2019-03-20T14:58:37.981Z,3.70
2019-03-20T15:01:09.814Z,3.30
2019-03-20T15:03:41.291Z,4.40
2019-03-20T15:06:12.930Z,3.90
2019-03-20T15:08:45.432Z,3.27
2019-03-20T15:11:17.805Z,3.23
2019-03-20T15:13:49.698Z,3.50
2019-03-20T15:16:21.056Z,3.47
2019-03-20T15:18:52.793Z,3.20
2019-03-20T15:21:24.238Z,4.00
2019-03-20T15:23:55.753Z,3.73
2019-03-20T15:26:27.585Z,3.43
2019-03-20T15:28:59.253Z,3.07
2019-03-20T15:31:30.624Z,2.87
2019-03-20T15:34:02.083Z,3.03
2019-03-20T15:36:35.773Z,3.37
2019-03-20T15:39:08.411Z,3.27
2019-03-20T15:41:40.715Z,3.50
2019-03-20T15:44:13.283Z,3.27
2019-03-20T15:46:46.059Z,4.07
2019-03-20T15:49:18.469Z,3.43
2019-03-20T15:51:49.927Z,3.70
2019-03-20T15:54:21.471Z,3.57
2019-03-20T15:56:52.879Z,3.57
2019-03-20T15:59:24.256Z,3.50
2019-03-20T16:01:56.645Z,4.80
2019-03-20T16:04:28.473Z,3.53
2019-03-20T16:07:00.595Z,5.10
2019-03-20T16:09:32.102Z,4.33
2019-03-20T16:12:03.578Z,4.20
2019-03-20T16:14:36.168Z,4.07
2019-03-20T16:17:07.755Z,4.10
2019-03-20T16:19:39.529Z,4.20
2019-03-20T16:22:12.558Z,4.73
2019-03-20T16:24:45.510Z,4.23
2019-03-20T16:27:16.966Z,4.17
2019-03-20T16:29:49.119Z,4.57
2019-03-20T16:32:21.017Z,4.00
2019-03-20T16:34:53.185Z,4.70
2019-03-20T16:37:26.169Z,3.90
2019-03-20T16:39:59.015Z,4.83
2019-03-20T16:42:31.555Z,4.73
2019-03-20T16:45:02.927Z,5.03
2019-03-20T16:47:34.393Z,4.43
2019-03-20T16:50:06.355Z,4.93
2019-03-20T16:52:37.831Z,5.33
2019-03-20T16:55:10.233Z,4.67
2019-03-20T16:57:41.873Z,4.73
2019-03-20T17:00:16.445Z,5.10
2019-03-20T17:02:47.777Z,4.70
2019-03-20T17:05:19.222Z,5.50
2019-03-20T17:07:50.699Z,4.70
2019-03-20T17:10:25.119Z,5.63
2019-03-20T17:12:57.239Z,6.17
2019-03-20T17:15:29.423Z,7.13
2019-03-20T17:18:01.067Z,5.73
2019-03-20T17:20:32.802Z,6.67
2019-03-20T17:23:04.485Z,6.13
2019-03-20T17:25:36.166Z,6.30
2019-03-20T17:28:07.810Z,6.77
2019-03-20T17:30:39.374Z,7.43
2019-03-20T17:33:10.835Z,7.43
2019-03-20T17:35:42.463Z,6.90
2019-03-20T17:38:13.806Z,7.13
2019-03-20T17:40:45.409Z,7.37
2019-03-20T17:43:16.823Z,6.87
2019-03-20T17:45:48.282Z,6.67
2019-03-20T17:48:19.738Z,7.20
2019-03-20T17:50:52.501Z,8.30
2019-03-20T17:53:24.270Z,9.10
2019-03-20T17:55:57.372Z,8.70
2019-03-20T17:58:28.981Z,8.13
2019-03-20T18:01:00.360Z,8.77
2019-03-20T18:03:31.853Z,7.93
2019-03-20T18:06:03.201Z,7.30
2019-03-20T18:08:35.207Z,7.67
2019-03-20T18:11:06.551Z,8.23
2019-03-20T18:13:37.879Z,8.60
2019-03-20T18:16:10.183Z,8.67
2019-03-20T18:18:41.646Z,9.57
2019-03-20T18:21:13.293Z,9.30
2019-03-20T18:23:44.882Z,9.37
2019-03-20T18:26:16.327Z,9.27
2019-03-20T18:28:47.946Z,10.10
2019-03-20T18:31:19.399Z,10.50
2019-03-20T18:33:50.872Z,10.20
2019-03-20T18:36:23.662Z,11.37
2019-03-20T18:38:55.069Z,10.53
2019-03-20T18:41:26.798Z,10.13
2019-03-20T18:43:59.110Z,10.77
2019-03-20T18:46:30.648Z,10.77
2019-03-20T18:49:02.330Z,11.50
2019-03-20T18:51:33.775Z,12.30
2019-03-20T18:54:06.530Z,12.47
2019-03-20T18:56:38.033Z,11.33
2019-03-20T18:59:09.351Z,12.10
2019-03-20T19:01:40.726Z,11.63
2019-03-20T19:04:12.375Z,11.40
2019-03-20T19:06:43.820Z,11.47
2019-03-20T19:09:15.393Z,11.07
2019-03-20T19:11:46.842Z,11.77
2019-03-20T19:14:18.186Z,13.13
2019-03-20T19:16:49.682Z,12.30
2019-03-20T19:19:21.079Z,12.70
2019-03-20T19:21:52.542Z,12.30
2019-03-20T19:24:23.927Z,11.77
2019-03-20T19:26:55.346Z,11.50
2019-03-20T19:29:27.446Z,11.63
2019-03-20T19:31:59.889Z,11.67
2019-03-20T19:34:31.241Z,10.07
2019-03-20T19:37:02.758Z,10.40
2019-03-20T19:39:34.275Z,9.10
2019-03-20T19:42:05.883Z,8.97
2019-03-20T19:44:37.260Z,8.93
2019-03-20T19:47:08.646Z,9.47
2019-03-20T19:49:41.506Z,10.70
2019-03-20T19:52:14.036Z,9.57
2019-03-20T19:54:46.260Z,8.60
2019-03-20T19:57:17.726Z,8.60
2019-03-20T19:59:49.385Z,8.03
2019-03-20T20:02:20.914Z,8.03
2019-03-20T20:04:52.262Z,7.10
2019-03-20T20:07:23.646Z,7.03
2019-03-20T20:09:55.296Z,7.70
2019-03-20T20:12:31.216Z,6.90
2019-03-20T20:14:59.938Z,6.83
2019-03-20T20:17:31.268Z,6.60
2019-03-20T20:20:02.765Z,5.90
2019-03-20T20:22:35.302Z,6.20
2019-03-20T20:25:07.096Z,5.80
2019-03-20T20:27:38.641Z,5.20
2019-03-20T20:30:12.652Z,5.97
2019-03-20T20:32:44.283Z,5.17
2019-03-20T20:35:15.640Z,5.20
2019-03-20T20:37:47.042Z,4.93
2019-03-20T20:40:18.593Z,6.53
2019-03-20T20:42:50.066Z,5.53
2019-03-20T20:45:21.680Z,4.53
2019-03-20T20:47:53.193Z,5.27
2019-03-20T20:50:24.668Z,3.80
2019-03-20T20:52:56.139Z,3.80
2019-03-20T20:55:27.455Z,3.77
2019-03-20T20:57:59.326Z,2.93
2019-03-20T21:00:30.939Z,3.87
2019-03-20T21:03:02.436Z,3.43
2019-03-20T21:05:33.965Z,3.50
2019-03-20T21:08:05.325Z,3.43
2019-03-20T21:10:36.790Z,4.87
2019-03-20T21:13:08.282Z,4.33
2019-03-20T21:15:44.912Z,3.43
2019-03-20T21:19:07.478Z,3.90
2019-03-20T21:22:01.784Z,4.37
2019-03-20T21:24:34.006Z,3.90
2019-03-20T21:27:46.330Z,4.40
2019-03-20T21:30:53.853Z,4.30
2019-03-20T21:33:50.193Z,4.43
2019-03-20T21:37:20.484Z,5.80
2019-03-20T21:39:53.118Z,4.77
2019-03-20T21:43:06.532Z,5.27
2019-03-20T21:46:11.778Z,6.30
2019-03-20T21:48:44.285Z,6.20
2019-03-20T21:51:17.519Z,6.93
2019-03-20T21:54:33.236Z,7.40
2019-03-20T21:57:43.626Z,6.67
2019-03-20T22:00:50.953Z,7.23
2019-03-20T22:03:23.019Z,7.53
2019-03-20T22:06:41.524Z,7.70
2019-03-20T22:10:15.268Z,8.47
2019-03-20T22:13:18.881Z,7.87
2019-03-20T22:16:48.683Z,7.27
2019-03-20T22:20:00.955Z,8.20
2019-03-20T22:23:22.676Z,8.83
2019-03-20T22:26:19.542Z,9.67
2019-03-20T22:29:07.604Z,9.60
2019-03-20T22:31:42.588Z,9.60
2019-03-20T22:34:43.216Z,9.33
2019-03-20T22:37:15.994Z,9.77
2019-03-20T22:40:26.171Z,9.83
2019-03-20T22:43:12.034Z,10.27
2019-03-20T22:46:36.056Z,9.50
2019-03-20T22:49:49.057Z,9.37
2019-03-20T22:52:45.545Z,10.47
2019-03-20T22:55:28.660Z,11.23
2019-03-20T22:58:48.783Z,12.13
2019-03-20T23:01:37.885Z,10.97
2019-03-20T23:04:14.339Z,12.80
2019-03-20T23:06:46.261Z,12.93
2019-03-20T23:09:18.736Z,12.03
2019-03-20T23:11:50.623Z,11.13
2019-03-20T23:14:22.837Z,12.00
2019-03-20T23:16:56.210Z,11.80
2019-03-20T23:19:28.217Z,13.90
2019-03-20T23:22:00.276Z,13.10
2019-03-20T23:24:32.294Z,12.93
2019-03-20T23:27:07.647Z,12.37
2019-03-20T23:29:39.744Z,12.77
2019-03-20T23:32:11.828Z,12.07
2019-03-20T23:34:43.958Z,12.13
2019-03-20T23:37:16.965Z,12.20
2019-03-20T23:39:48.893Z,10.60
2019-03-20T23:42:22.302Z,12.07
2019-03-20T23:44:55.019Z,12.47
2019-03-20T23:47:35.437Z,12.87
2019-03-20T23:50:08.556Z,11.97
2019-03-20T23:52:40.569Z,11.23
2019-03-20T23:55:14.373Z,11.47
2019-03-20T23:57:46.248Z,11.20
